• Join FlightAware (Why Join?)
  • Login
  • US Flag GB Flag 
05:45 EST


 

Airport Tracker/Info


-or-


 

Live Flight TrackerFlight Track Log ✈ DAL268 ✈ 26-May-2013 ✈ KJFK - LLBG / TLV

Flight Track Log - Related Links

Times and Time Zones

All times are in EDT time to prevent confusion due to time zone crossing. See the DAL268 flight status page for this flight to view local times or setup timezone preferences in your user account.

Time Position Orientation Groundspeed Altitude Reporting Facility
EDT Latitude Longitude Course Direction KTS MPH feet Rate Location/Type
23:19 40.6370 -73.7800 264° West  Level FlightAware
23:29 40.6380 -73.7790 360° North 2 2  Level FlightAware
23:31 40.5396 -73.4854 114° Southeast  Level FlightAware Approximate
23:31 40.6370 -73.7790 114° Southeast 2 2  Level FlightAware
23:33 40.6360 -73.7790 180° South 2 2  Level FlightAware
23:36 40.4918 -73.3422 114° Southeast  Level FlightAware Approximate
23:37 40.4455 -73.1728 119° Southeast  Level FlightAware Approximate
23:38 40.3833 -73.0105 90° East  Level FlightAware Approximate
23:38 40.6350 -73.7780 90° East 16 18  Level FlightAware
23:39 40.6340 -73.7790 217° Southwest 20 23  Level FlightAware
23:40 40.6330 -73.7770 123° Southeast 24 28  Level FlightAware
23:40 40.6320 -73.7750 123° Southeast 23 26  Level FlightAware
23:41 40.6310 -73.7740 143° Southeast 19 22  Level FlightAware
23:42 40.6310 -73.7730 90° East 12 14  Level FlightAware
23:42 40.6300 -73.7720 143° Southeast 16 18  Level FlightAware
23:43 40.6290 -73.7710 143° Southeast 18 21 60 Level FlightAware
23:45 40.6280 -73.7720 217° Southwest 14 16 60 Level FlightAware
23:45 40.6280 -73.7730 270° West 120 Level FlightAware
23:46 40.6300 -73.7770 303° West 70 81 120 Level FlightAware
23:47 40.6350 -73.7880 301° West 130 150 300 Level FlightAware
23:47 40.6420 -73.8020 303° West 175 201 480 Level FlightAware
23:47 40.6500 -73.8190 302° West 177 204 300 1,560 Climbing FlightAware
23:48 40.6550 -73.8430 285° West 181 208 1,000 1,260 Climbing FlightAware
23:48 40.6410 -73.8760 241° Southwest 216 249 1,500 780 Climbing FlightAware
23:48 40.6290 -73.8820 201° Southwest 230 265 1,600 660 Climbing FlightAware
23:49 40.6140 -73.8850 189° South 248 285 1,800 900 Climbing FlightAware
23:49 40.5790 -73.8730 165° South 272 313 2,300 1,200 Climbing FlightAware
23:49 40.5510 -73.8430 141° Southeast 288 331 3,000 1,680 Climbing FlightAware
23:50 40.5330 -73.7990 118° Southeast 295 339 3,900 1,920 Climbing FlightAware
23:50 40.5274 -73.7530 99° East 296 341 4,700 1,620 Climbing FlightAware ADS-B
23:51 40.5243 -73.7259 99° East 304 350 5,000 2,220 Climbing FlightAware ADS-B
23:51 40.5210 -73.6951 98° East 299 344 5,900 2,760 Climbing FlightAware ADS-B
23:51 40.5181 -73.6681 98° East 299 344 6,500 1,920 Climbing FlightAware ADS-B
23:51 40.5152 -73.6389 97° East 307 353 6,900 1,500 Climbing FlightAware ADS-B
23:52 40.5122 -73.6088 97° East 316 364 7,300 1,500 Climbing FlightAware ADS-B
23:52 40.5085 -73.5859 102° East 325 374 7,600 1,980 Climbing FlightAware ADS-B
23:52 40.5026 -73.5572 105° East 326 375 8,200 2,400 Climbing FlightAware ADS-B
23:52 40.4962 -73.5286 106° East 327 376 8,800 2,280 Climbing FlightAware ADS-B
23:53 40.4896 -73.4979 106° East 328 377 9,400 1,920 Climbing FlightAware ADS-B
23:53 40.4832 -73.4687 106° East 331 381 9,800 960 Climbing FlightAware ADS-B
23:53 40.4765 -73.4366 105° East 351 404 9,900 1,140 Climbing FlightAware ADS-B
23:54 40.4637 -73.3728 105° East 367 422 10,700 1,380 Climbing FlightAware ADS-B
23:54 40.4534 -73.3177 104° East 385 443 11,200 1,200 Climbing FlightAware ADS-B
23:55 40.4395 -73.2451 104° East 406 467 11,800 1,320 Climbing FlightAware ADS-B
23:55 40.4244 -73.1693 105° East 424 488 12,600 1,860 Climbing FlightAware ADS-B
23:56 40.4091 -73.0939 105° East 430 495 13,700 1,980 Climbing FlightAware ADS-B
23:56 40.3967 -73.0276 104° East 438 504 14,500 1,620 Climbing FlightAware ADS-B
23:56 40.3927 -72.9746 96° East 441 507 15,000 1,620 Climbing FlightAware ADS-B
23:57 40.3950 -72.9427 85° East 438 504 15,400 2,340 Climbing FlightAware ADS-B
23:57 40.4001 -72.9118 78° East 432 497 15,900 1,560 Climbing FlightAware ADS-B
23:57 40.4192 -72.8328 72° East 447 514 16,500 1,920 Climbing FlightAware ADS-B
23:58 40.4383 -72.7551 72° East 445 512 17,900 1,980 Climbing FlightAware ADS-B
23:58 40.4520 -72.7097 68° East 450 518 18,100 1,260 Climbing FlightAware ADS-B
23:58 40.4770 -72.6519 60° Northeast 452 520 18,800 1,680 Climbing FlightAware ADS-B
23:59 40.5205 -72.5718 54° Northeast 453 521 19,800 1,800 Climbing FlightAware ADS-B
00:00 40.5628 -72.5093 48° Northeast 455 524 20,800 1,740 Climbing FlightAware ADS-B
00:00 40.6056 -72.4444 49° Northeast 462 532 21,600 1,560 Climbing FlightAware ADS-B
00:01 40.6482 -72.3797 49° Northeast 466 536 22,400 1,560 Climbing FlightAware ADS-B
00:01 40.6901 -72.3117 51° Northeast 472 543 23,200 1,500 Climbing FlightAware ADS-B
00:02 40.7332 -72.2445 50° Northeast 476 548 24,000 1,440 Climbing FlightAware ADS-B
00:02 40.7753 -72.1743 52° Northeast 482 555 24,700 1,260 Climbing FlightAware ADS-B
00:03 40.8186 -72.1053 50° Northeast 486 559 25,300 1,140 Climbing FlightAware ADS-B
00:03 40.8620 -72.0333 51° Northeast 493 567 25,900 1,140 Climbing FlightAware ADS-B
00:04 40.9056 -71.9627 51° Northeast 496 571 26,500 1,080 Climbing FlightAware ADS-B
00:04 40.9494 -71.8914 51° Northeast 503 579 27,000 1,080 Climbing FlightAware ADS-B
00:05 40.9941 -71.8169 52° Northeast 506 582 27,600 1,080 Climbing FlightAware ADS-B
00:05 41.0386 -71.7440 51° Northeast 508 585 28,100 960 Climbing FlightAware ADS-B
00:06 41.0847 -71.6682 51° Northeast 515 593 28,600 1,140 Climbing FlightAware ADS-B
00:07 41.1730 -71.5230 51° Northeast 513 590 29,900 1,260 Climbing FlightAware
00:07 41.2310 -71.4270 51° Northeast 510 587 30,800 780 Climbing FlightAware
00:08 41.2920 -71.3270 51° Northeast 510 587 31,000 120 Climbing FlightAware
00:09 41.3650 -71.2040 52° Northeast 504 580 31,000  Level FlightAware
00:10 41.4240 -71.1050 52° Northeast 506 582 31,000  Level FlightAware
00:10 41.4820 -71.0070 52° Northeast 507 583 31,000  Level FlightAware
00:11 41.5450 -70.9020 51° Northeast 506 582 31,000  Level FlightAware
00:12 41.6070 -70.7960 52° Northeast 506 582 31,000  Level FlightAware
00:12 41.6690 -70.6920 51° Northeast 512 589 31,000  Level FlightAware
00:13 41.7160 -70.6140 51° Northeast 512 589 31,000  Level FlightAware
00:14 41.7930 -70.4780 53° Northeast 520 598 31,000  Level FlightAware
00:14 41.8550 -70.3710 52° Northeast 516 594 31,000  Level FlightAware
00:15 41.9110 -70.2740 52° Northeast 515 593 31,000  Level FlightAware
00:16 41.9800 -70.1540 52° Northeast 514 592 31,000  Level FlightAware
00:16 42.0350 -70.0590 52° Northeast 514 592 31,000  Level FlightAware
00:17 42.0990 -69.9470 52° Northeast 514 592 31,000  Level FlightAware
00:18 42.1580 -69.8440 52° Northeast 517 595 31,000  Level FlightAware
00:19 42.2240 -69.7270 53° Northeast 518 596 31,000  Level FlightAware
00:19 42.2860 -69.6180 52° Northeast 526 605 31,000  Level FlightAware
00:20 42.3450 -69.5130 53° Northeast 529 609 31,000  Level FlightAware
00:21 42.4160 -69.3860 53° Northeast 529 609 31,000  Level FlightAware
00:21 42.4730 -69.2830 53° Northeast 530 610 31,000  Level FlightAware
00:22 42.5210 -69.1980 53° Northeast 531 611 31,000  Level FlightAware
00:23 42.5980 -69.0600 53° Northeast 526 605 31,000  Level FlightAware
00:24 42.6520 -68.9610 53° Northeast 526 605 31,000  Level FlightAware
00:24 42.7180 -68.8410 53° Northeast 532 612 31,000  Level FlightAware
00:25 42.7700 -68.7470 53° Northeast 528 608 31,000  Level FlightAware
00:26 42.8300 -68.6370 53° Northeast 528 608 31,000  Level FlightAware
00:27 42.9310 -68.4510 53° Northeast 527 606 31,000  Level FlightAware
00:28 43.0260 -68.2750 54° Northeast 527 606 31,000  Level FlightAware
00:28 43.0910 -68.1560 53° Northeast 31,000  Level FlightAware
00:31 43.2920 -67.7800 54° Northeast 524 603 31,000  Level FlightAware
00:31 43.3510 -67.6690 54° Northeast 526 605 31,000  Level FlightAware
00:32 43.4170 -67.5430 54° Northeast 527 606 31,000  Level FlightAware
00:33 43.4740 -67.4360 54° Northeast 528 608 31,000  Level FlightAware
00:34 43.5320 -67.3230 55° Northeast 529 609 31,000  Level FlightAware
00:34 43.5970 -67.2010 54° Northeast 530 610 31,000  Level FlightAware
00:35 43.6620 -67.0740 55° Northeast 530 610 31,000  Level FlightAware
00:36 43.7200 -66.9620 54° Northeast 536 617 31,000  Level FlightAware
00:36 43.7830 -66.8400 54° Northeast 535 616 31,000  Level FlightAware
00:37 43.8340 -66.7390 55° Northeast 533 613 31,000  Level FlightAware
00:38 43.8980 -66.6140 55° Northeast 534 615 31,000  Level FlightAware
00:38 43.9550 -66.5020 55° Northeast 535 616 31,000  Level FlightAware
00:39 44.0190 -66.3780 54° Northeast 534 615 31,000  Level FlightAware
00:40 44.0770 -66.2630 55° Northeast 535 616 31,000  Level FlightAware
00:41 44.1330 -66.1500 55° Northeast 536 617 31,000  Level FlightAware
00:41 44.1960 -66.0250 55° Northeast 538 619 31,000  Level FlightAware
00:42 44.2510 -65.9140 55° Northeast 539 620 31,000  Level FlightAware
00:43 44.3170 -65.7800 55° Northeast 537 618 31,000  Level FlightAware
00:43 44.3740 -65.6660 55° Northeast 537 618 31,000  Level FlightAware
00:44 44.4380 -65.5340 56° Northeast 537 618 31,000  Level FlightAware
00:45 44.4910 -65.4250 56° Northeast 536 617 31,000  Level FlightAware
00:45 44.5490 -65.3080 55° Northeast 535 616 31,000  Level FlightAware
00:46 44.6110 -65.1820 55° Northeast 529 609 31,000  Level FlightAware
00:47 44.6680 -65.0640 56° Northeast 528 608 31,000  Level FlightAware
00:48 44.7220 -64.9500 56° Northeast 528 608 31,000  Level FlightAware
00:48 44.7800 -64.8320 55° Northeast 529 609 31,000  Level FlightAware
00:49 44.8450 -64.6960 56° Northeast 539 620 31,000  Level FlightAware
00:50 44.9060 -64.5670 56° Northeast 542 624 31,000  Level FlightAware
00:50 44.9640 -64.4430 57° Northeast 546 628 31,000  Level FlightAware
00:51 45.0200 -64.3240 56° Northeast 547 629 31,000  Level FlightAware
00:52 45.0800 -64.1990 56° Northeast 548 631 31,000  Level FlightAware
00:52 45.1330 -64.0850 57° Northeast 549 632 31,000  Level FlightAware
00:53 45.1970 -63.9470 57° Northeast 550 633 31,000  Level FlightAware
00:54 45.2530 -63.8260 57° Northeast 551 634 31,000  Level FlightAware
00:55 45.3170 -63.6870 57° Northeast 552 635 31,000  Level FlightAware
00:55 45.3710 -63.5710 56° Northeast 555 639 31,000  Level FlightAware
00:56 45.4350 -63.4310 57° Northeast 558 642 31,000  Level FlightAware
00:57 45.4910 -63.3070 57° Northeast 560 644 31,000  Level FlightAware
00:57 45.5500 -63.1770 57° Northeast 560 644 31,000  Level FlightAware
00:59 45.6440 -62.9690 57° Northeast 560 644 31,000  Level FlightAware
01:00 45.7180 -62.8060 57° Northeast 562 647 31,000  Level FlightAware
01:00 45.7610 -62.7100 57° Northeast 562 647 31,000  Level FlightAware
01:01 45.8190 -62.5820 57° Northeast 562 647 31,000  Level FlightAware
01:02 45.8620 -62.4870 57° Northeast 562 647 31,000  Level FlightAware
01:02 45.9200 -62.3590 57° Northeast 562 647 31,000  Level FlightAware
01:03 45.9650 -62.2600 57° Northeast 562 647 31,000  Level FlightAware
01:04 46.0770 -61.9870 59° Northeast 552 635 31,000  Level FlightAware
01:04 46.1320 -61.8590 58° Northeast 554 638 31,000  Level FlightAware
01:05 46.1880 -61.7310 58° Northeast 555 639 31,000  Level FlightAware
01:06 46.2480 -61.5890 59° Northeast 556 640 31,000  Level FlightAware
01:07 46.3010 -61.4660 58° Northeast 556 640 31,000  Level FlightAware
01:07 46.3610 -61.3260 58° Northeast 555 639 31,000  Level FlightAware
01:08 46.4150 -61.1960 59° Northeast 555 639 31,000  Level FlightAware
01:09 46.4730 -61.0600 58° Northeast 556 640 31,000  Level FlightAware
01:09 46.5240 -60.9350 59° Northeast 556 640 31,000  Level FlightAware
01:10 46.5860 -60.7880 58° Northeast 555 639 31,000  Level FlightAware
01:11 46.6350 -60.6710 59° Northeast 554 638 31,000  Level FlightAware
01:11 46.6940 -60.5270 59° Northeast 554 638 31,000  Level FlightAware
01:12 46.7460 -60.3980 59° Northeast 557 641 31,000  Level FlightAware
01:13 46.8030 -60.2600 59° Northeast 558 642 31,000  Level FlightAware
01:13 46.8560 -60.1300 59° Northeast 561 646 31,000  Level FlightAware
01:14 46.9150 -59.9820 60° Northeast 565 650 31,000  Level FlightAware
01:15 46.9690 -59.8500 59° Northeast 566 651 31,000  Level FlightAware
01:16 47.0260 -59.7080 59° Northeast 565 650 31,000  Level FlightAware
01:16 47.0790 -59.5730 60° Northeast 566 651 31,000  Level FlightAware
01:17 47.1370 -59.4260 60° Northeast 568 654 31,000  Level FlightAware
01:18 47.2020 -59.2630 60° Northeast 568 654 31,000  Level FlightAware
01:19 47.2420 -59.1600 60° Northeast 568 654 31,000  Level FlightAware
01:19 47.2960 -59.0230 60° Northeast 568 654 31,000  Level FlightAware
01:20 47.3360 -58.9200 60° Northeast 568 654 31,000  Level FlightAware
01:21 47.4260 -58.6840 61° Northeast 566 651 31,000  Level FlightAware
01:22 47.4830 -58.5370 60° Northeast 565 650 31,000  Level FlightAware
01:22 47.5370 -58.4000 60° Northeast 565 650 31,000  Level FlightAware
01:23 47.6050 -58.2140 61° Northeast 562 647 31,000  Level FlightAware
01:24 47.6550 -58.0830 60° Northeast 561 646 31,000  Level FlightAware
01:24 47.7120 -57.9290 61° Northeast 559 643 31,000  Level FlightAware
01:25 47.7560 -57.8120 61° Northeast 558 642 31,000  Level FlightAware
01:26 47.8070 -57.6590 64° Northeast 551 634 31,000  Level FlightAware
01:27 47.8560 -57.5090 64° Northeast 549 632 31,000  Level FlightAware
01:27 47.9000 -57.3760 64° Northeast 551 634 31,000  Level FlightAware
01:28 47.9490 -57.2260 64° Northeast 553 636 31,000  Level FlightAware
01:29 47.9960 -57.0820 64° Northeast 553 636 31,000  Level FlightAware
01:29 48.0460 -56.9280 64° Northeast 552 635 31,000  Level FlightAware
01:30 48.0910 -56.7870 64° Northeast 552 635 31,000  Level FlightAware
01:31 48.1360 -56.6500 64° Northeast 553 636 31,000  Level FlightAware
01:31 48.1860 -56.4940 64° Northeast 556 640 31,000 120 Level FlightAware
01:32 48.2300 -56.3540 65° Northeast 560 644 31,200 660 Climbing FlightAware
01:33 48.2770 -56.2070 64° Northeast 560 644 32,000 540 Climbing FlightAware
01:34 48.3240 -56.0560 65° Northeast 560 644 32,000  Level FlightAware
01:34 48.3730 -55.9020 64° Northeast 557 641 32,000  Level FlightAware
01:35 48.4170 -55.7580 65° Northeast 556 640 32,000  Level FlightAware
01:36 48.4600 -55.6180 65° Northeast 555 639 32,000  Level FlightAware
01:36 48.5030 -55.4770 65° Northeast 555 639 32,000  Level FlightAware
01:37 48.5510 -55.3190 65° Northeast 555 639 32,000  Level FlightAware
01:38 48.5920 -55.1820 66° East 556 640 32,000  Level FlightAware
01:38 48.6410 -55.0190 65° Northeast 555 639 32,000  Level FlightAware
01:39 48.6840 -54.8780 65° Northeast 555 639 32,000  Level FlightAware
01:40 48.7320 -54.7190 65° Northeast 554 638 32,000  Level FlightAware
01:41 48.7730 -54.5810 66° East 553 636 32,000  Level FlightAware
01:41 48.8150 -54.4360 66° East 552 635 32,000  Level FlightAware
01:42 48.8610 -54.2800 66° East 550 633 32,000  Level FlightAware
01:43 48.9020 -54.1360 67° East 549 632 32,000  Level FlightAware
01:43 48.9480 -53.9770 66° East 545 627 32,000  Level FlightAware
01:44 48.9880 -53.8370 66° East 545 627 32,000  Level FlightAware
01:45 49.0340 -53.6790 66° East 545 627 32,000  Level FlightAware
01:45 49.0740 -53.5370 67° East 546 628 32,000  Level FlightAware
01:46 49.1180 -53.3790 67° East 545 627 32,000  Level FlightAware
01:47 49.1520 -53.2580 67° East 546 628 32,000  Level FlightAware
01:47 49.1920 -53.1160 67° East 547 629 32,000  Level FlightAware
01:48 49.2350 -52.9600 67° East 547 629 32,000  Level FlightAware
01:49 49.2810 -52.7920 67° East 546 628 32,000  Level FlightAware
01:50 49.3190 -52.6530 67° East 547 629 32,000  Level FlightAware
01:51 49.3730 -52.4530 67° East 547 629 32,000  Level FlightAware
01:52 49.4290 -52.2450 67° East 548 631 32,000  Level FlightAware
01:52 49.4680 -52.0970 68° East 547 629 32,000  Level FlightAware
01:53 49.5110 -51.9350 68° East 548 631 32,000  Level FlightAware
01:54 49.5480 -51.7940 68° East 548 631 32,000  Level FlightAware
01:54 49.5850 -51.6520 68° East 548 631 32,000  Level FlightAware
01:55 49.6140 -51.5410 68° East 548 631 32,000  Level FlightAware
01:56 49.6530 -51.3930 68° East 548 631 32,000  Level FlightAware
01:56 49.6820 -51.2820 68° East 548 631 32,000  Level FlightAware
01:57 49.7210 -51.1310 68° East 548 631 32,000  Level FlightAware
01:58 49.7500 -51.0190 68° East 548 631 32,000  Level FlightAware
01:59 49.7900 -50.8680 68° East 548 631 32,000  Level FlightAware
01:59 49.8200 -50.7530 68° East 548 631 32,000  Level FlightAware
02:00 49.8590 -50.6010 68° East 548 631 32,000  Level FlightAware
02:01 49.8890 -50.4870 68° East 548 631 32,000  Level FlightAware
02:02 49.9380 -50.3000 68° East 548 631 32,000  Level FlightAware
02:02 49.9670 -50.1890 68° East 548 631 32,000  Level FlightAware
02:03 50.0000 -50.0000 69° East 516 594 32,000  Level ETMS Enhanced Traffic Management System
02:03 50.0500 -49.7500 69° East 540 621 32,000  Level Gander Center
02:03 50.0050 -50.0390 68° East 548 631 32,000  Level FlightAware
02:03 50.0000 -50.0000 69° East 516 594 32,000  Level ETMS Enhanced Traffic Management System
02:04 50.0340 -49.9270 68° East 548 631 32,000  Level FlightAware
02:04 50.0667 -49.5333 69° East 550 633 32,000  Level Gander Center
02:05 50.1500 -49.3000 61° Northeast 540 621 32,000  Level Gander Center
02:05 50.1500 -49.2167 90° East 550 633 32,000  Level Gander Center
02:06 50.2167 -49.0167 62° Northeast 540 621 32,000  Level Gander Center
02:07 50.2667 -48.7667 73° East 550 633 32,000  Level Gander Center
02:08 50.3167 -48.5667 69° East 550 633 32,000  Level Gander Center
02:09 50.3667 -48.3667 69° East 540 621 32,000  Level Gander Center
02:12 50.4371 -48.0697 69° East  Level FlightAware Approximate
02:19 50.7780 -46.5717 70° East  Level FlightAware Approximate
02:20 50.8251 -46.3559 71° East  Level FlightAware Approximate
02:21 50.8718 -46.1397 71° East  Level FlightAware Approximate
02:22 50.9182 -45.9231 71° East  Level FlightAware Approximate
02:23 50.9641 -45.7060 71° East  Level FlightAware Approximate
02:24 51.0096 -45.4885 72° East  Level FlightAware Approximate
02:25 51.0547 -45.2706 72° East  Level FlightAware Approximate
02:26 51.0994 -45.0523 72° East  Level FlightAware Approximate
02:27 51.1437 -44.8335 72° East  Level FlightAware Approximate
02:28 51.1876 -44.6143 72° East  Level FlightAware Approximate
02:29 51.2310 -44.3947 72° East  Level FlightAware Approximate
02:30 51.2741 -44.1747 73° East  Level FlightAware Approximate
02:31 51.3168 -43.9543 73° East  Level FlightAware Approximate
02:32 51.3590 -43.7335 73° East  Level FlightAware Approximate
02:33 51.4008 -43.5123 73° East  Level FlightAware Approximate
02:34 51.4422 -43.2906 73° East  Level FlightAware Approximate
02:35 51.4832 -43.0686 73° East  Level FlightAware Approximate
02:36 51.5238 -42.8462 74° East  Level FlightAware Approximate
02:37 51.5639 -42.6233 74° East  Level FlightAware Approximate
02:38 51.6036 -42.4001 74° East  Level FlightAware Approximate
02:39 51.6429 -42.1765 74° East  Level FlightAware Approximate
02:40 51.6818 -41.9525 74° East  Level FlightAware Approximate
02:41 51.7202 -41.7282 74° East  Level FlightAware Approximate
02:42 51.7583 -41.5034 75° East  Level FlightAware Approximate
02:43 51.7959 -41.2783 75° East  Level FlightAware Approximate
02:44 51.8330 -41.0528 75° East  Level FlightAware Approximate
02:45 51.8697 -40.8269 75° East  Level FlightAware Approximate
02:46 51.9060 -40.6007 75° East  Level FlightAware Approximate
02:47 51.9419 -40.3741 76° East  Level FlightAware Approximate
02:48 51.9773 -40.1471 76° East  Level FlightAware Approximate
02:49 52.0035 -39.9172 86° East  Level FlightAware Approximate
02:50 52.0130 -39.6833 86° East  Level FlightAware Approximate
02:51 52.0221 -39.4494 86° East  Level FlightAware Approximate
02:52 52.0307 -39.2153 86° East  Level FlightAware Approximate
02:53 52.0388 -38.9812 87° East  Level FlightAware Approximate
02:54 52.0465 -38.7469 87° East  Level FlightAware Approximate
02:55 52.0537 -38.5126 87° East  Level FlightAware Approximate
02:56 52.0604 -38.2782 87° East  Level FlightAware Approximate
02:57 52.0667 -38.0438 87° East  Level FlightAware Approximate
02:58 52.0725 -37.8093 88° East  Level FlightAware Approximate
02:59 52.0779 -37.5747 88° East  Level FlightAware Approximate
03:00 52.0828 -37.3401 88° East  Level FlightAware Approximate
03:01 52.0872 -37.1054 88° East  Level FlightAware Approximate
03:02 52.0911 -36.8707 88° East  Level FlightAware Approximate
03:03 52.0946 -36.6359 89° East  Level FlightAware Approximate
03:04 52.0976 -36.4011 89° East  Level FlightAware Approximate
03:05 52.1002 -36.1663 89° East  Level FlightAware Approximate
03:06 52.1023 -35.9314 89° East  Level FlightAware Approximate
03:07 52.1039 -35.6966 89° East  Level FlightAware Approximate
03:08 52.1050 -35.4617 89° East  Level FlightAware Approximate
03:09 52.1057 -35.2268 90° East  Level FlightAware Approximate
03:10 52.1059 -34.9919 90° East  Level FlightAware Approximate
03:11 52.1057 -34.7570 90° East  Level FlightAware Approximate
03:12 52.1050 -34.5221 90° East  Level FlightAware Approximate
03:13 52.1038 -34.2872 90° East  Level FlightAware Approximate
03:14 52.1021 -34.0524 91° East  Level FlightAware Approximate
03:15 52.1000 -33.8175 91° East  Level FlightAware Approximate
03:16 52.0974 -33.5827 91° East  Level FlightAware Approximate
03:17 52.0944 -33.3479 91° East  Level FlightAware Approximate
03:18 52.0909 -33.1131 91° East  Level FlightAware Approximate
03:19 52.0869 -32.8784 91° East  Level FlightAware Approximate
03:20 52.0824 -32.6437 92° East  Level FlightAware Approximate
03:21 52.0775 -32.4091 92° East  Level FlightAware Approximate
03:22 52.0721 -32.1745 92° East  Level FlightAware Approximate
03:23 52.0663 -31.9400 92° East  Level FlightAware Approximate
03:24 52.0600 -31.7056 92° East  Level FlightAware Approximate
03:25 52.0532 -31.4712 93° East  Level FlightAware Approximate
03:26 52.0460 -31.2369 93° East  Level FlightAware Approximate
03:27 52.0383 -31.0027 93° East  Level FlightAware Approximate
03:28 52.0301 -30.7685 93° East  Level FlightAware Approximate
03:29 52.0215 -30.5345 93° East  Level FlightAware Approximate
03:30 52.0124 -30.3005 94° East  Level FlightAware Approximate
03:31 52.0028 -30.0666 94° East  Level FlightAware Approximate
03:32 51.9906 -29.8332 95° East  Level FlightAware Approximate
03:33 51.9770 -29.5999 95° East  Level FlightAware Approximate
03:34 51.9629 -29.3669 96° East  Level FlightAware Approximate
03:35 51.9484 -29.1339 96° East  Level FlightAware Approximate
03:36 51.9334 -28.9012 96° East  Level FlightAware Approximate
03:37 51.9180 -28.6686 96° East  Level FlightAware Approximate
03:38 51.9021 -28.4361 96° East  Level FlightAware Approximate
03:39 51.8857 -28.2038 96° East  Level FlightAware Approximate
03:40 51.8689 -27.9717 97° East  Level FlightAware Approximate
03:41 51.8516 -27.7398 97° East  Level FlightAware Approximate
03:42 51.8339 -27.5081 97° East  Level FlightAware Approximate
03:43 51.8157 -27.2765 97° East  Level FlightAware Approximate
03:44 51.7971 -27.0451 97° East  Level FlightAware Approximate
03:45 51.7780 -26.8139 98° East  Level FlightAware Approximate
03:46 51.7585 -26.5829 98° East  Level FlightAware Approximate
03:47 51.7385 -26.3521 98° East  Level FlightAware Approximate
03:48 51.7180 -26.1215 98° East  Level FlightAware Approximate
03:49 51.6971 -25.8912 98° East  Level FlightAware Approximate
03:50 51.6758 -25.6610 98° East  Level FlightAware Approximate
03:51 51.6540 -25.4311 99° East  Level FlightAware Approximate
03:52 51.6318 -25.2014 99° East  Level FlightAware Approximate
03:53 51.6091 -24.9719 99° East  Level FlightAware Approximate
03:54 51.5859 -24.7427 99° East  Level FlightAware Approximate
03:55 51.5624 -24.5136 99° East  Level FlightAware Approximate
03:56 51.5383 -24.2849 99° East  Level FlightAware Approximate
03:57 51.5139 -24.0563 100° East  Level FlightAware Approximate
03:58 51.4889 -23.8280 100° East  Level FlightAware Approximate
03:59 51.4636 -23.6000 100° East  Level FlightAware Approximate
04:00 51.4378 -23.3722 100° East  Level FlightAware Approximate
04:01 51.4115 -23.1447 100° East  Level FlightAware Approximate
04:02 51.3848 -22.9174 101° East  Level FlightAware Approximate
04:03 51.3577 -22.6905 101° East  Level FlightAware Approximate
04:04 51.3302 -22.4637 101° East  Level FlightAware Approximate
04:05 51.3022 -22.2373 101° East  Level FlightAware Approximate
04:06 51.2737 -22.0111 101° East  Level FlightAware Approximate
04:07 51.2449 -21.7852 101° East  Level FlightAware Approximate
04:08 51.2156 -21.5597 102° East  Level FlightAware Approximate
04:09 51.1858 -21.3343 102° East  Level FlightAware Approximate
04:10 51.1557 -21.1093 102° East  Level FlightAware Approximate
04:11 51.1251 -20.8846 102° East  Level FlightAware Approximate
04:12 51.0940 -20.6602 102° East  Level FlightAware Approximate
04:13 51.0626 -20.4361 103° East  Level FlightAware Approximate
04:14 51.0307 -20.2122 103° East  Level FlightAware Approximate
04:15 50.9987 -19.9886 100° East  Level FlightAware Approximate
04:16 50.9738 -19.7629 100° East  Level FlightAware Approximate
04:17 50.9484 -19.5374 100° East  Level FlightAware Approximate
04:18 50.9226 -19.3122 100° East  Level FlightAware Approximate
04:19 50.8963 -19.0872 100° East  Level FlightAware Approximate
04:20 50.8696 -18.8624 101° East  Level FlightAware Approximate
04:21 50.8425 -18.6380 101° East  Level FlightAware Approximate
04:22 50.8149 -18.4138 101° East  Level FlightAware Approximate
04:23 50.7869 -18.1898 101° East  Level FlightAware Approximate
04:24 50.7585 -17.9662 101° East  Level FlightAware Approximate
04:25 50.7296 -17.7428 101° East  Level FlightAware Approximate
04:26 50.7004 -17.5196 102° East  Level FlightAware Approximate
04:27 50.6707 -17.2968 102° East  Level FlightAware Approximate
04:28 50.6406 -17.0742 102° East  Level FlightAware Approximate
04:29 50.6099 -16.8520 102° East  Level FlightAware Approximate
04:30 50.5785 -16.6302 102° East  Level FlightAware Approximate
04:31 50.5467 -16.4087 103° East  Level FlightAware Approximate
04:32 50.5144 -16.1875 103° East  Level FlightAware Approximate
04:33 50.4818 -15.9665 103° East  Level FlightAware Approximate
04:34 50.4487 -15.7459 103° East  Level FlightAware Approximate
04:35 50.4152 -15.5256 103° East  Level FlightAware Approximate
04:36 50.3812 -15.3056 104° East  Level FlightAware Approximate
04:37 50.3469 -15.0860 104° East  Level FlightAware Approximate
04:38 50.3121 -14.8666 104° East  Level FlightAware Approximate
04:39 50.2768 -14.6476 104° East  Level FlightAware Approximate
04:40 50.2412 -14.4290 104° East  Level FlightAware Approximate
04:41 50.2051 -14.2106 104° East  Level FlightAware Approximate
04:42 50.1686 -13.9926 105° East  Level FlightAware Approximate
04:43 50.1317 -13.7750 105° East  Level FlightAware Approximate
04:43 50.2200 -10.9160 105° East 580 667 35,000  Level FlightAware
04:43 50.1820 -10.7590 111° Southeast 579 666 35,000  Level FlightAware
04:44 50.0944 -13.5576 105° East  Level FlightAware Approximate
04:44 50.1450 -10.6030 110° East 579 666 35,000  Level FlightAware
04:45 50.1030 -10.4320 111° Southeast 578 665 35,000  Level FlightAware
04:46 50.0600 -10.2580 111° Southeast 578 665 35,000  Level FlightAware
04:46 50.0230 -10.1110 111° Southeast 575 662 35,000  Level FlightAware
04:47 49.9800 -9.9340 111° Southeast 574 661 35,000  Level FlightAware
04:48 49.9410 -9.7810 112° Southeast 570 656 35,000  Level FlightAware
04:48 49.8980 -9.6140 112° Southeast 570 656 35,000  Level FlightAware
04:49 49.8590 -9.4590 111° Southeast 568 654 35,000  Level FlightAware
04:50 49.8200 -9.3080 112° Southeast 566 651 35,000  Level FlightAware
04:50 49.7780 -9.1470 112° Southeast 562 647 35,000  Level FlightAware
04:51 49.7405 -9.0039 112° Southeast 480 552 35,000  Level FlightAware UK
04:51 49.7390 -8.9950 112° Southeast 557 641 35,000  Level FlightAware
04:51 49.7174 -8.9154 112° Southeast 480 552 35,000  Level FlightAware UK
04:52 49.7000 -8.8490 112° Southeast 484 557 35,000  Level FlightAware UK
04:52 49.6970 -8.8370 112° Southeast 558 642 35,000  Level FlightAware
04:52 49.6767 -8.7605 112° Southeast 482 555 35,000  Level FlightAware UK
04:52 49.6593 -8.6942 112° Southeast 478 550 35,000  Level FlightAware UK
04:53 49.6560 -8.6860 112° Southeast 558 642 35,000  Level FlightAware
04:53 49.6357 -8.6059 112° Southeast 482 555 35,000  Level FlightAware UK
04:53 49.6180 -8.5397 112° Southeast 482 555 35,000  Level FlightAware UK
04:53 49.6130 -8.5240 112° Southeast 560 644 35,000  Level FlightAware
04:54 49.5943 -8.4515 112° Southeast 484 557 35,000  Level FlightAware UK
04:54 49.5766 -8.3854 112° Southeast 480 552 35,000  Level FlightAware UK
04:54 49.5730 -8.3690 112° Southeast 559 643 35,000  Level FlightAware
04:54 49.5529 -8.2972 112° Southeast 480 552 35,000  Level FlightAware UK
04:55 49.5352 -8.2309 112° Southeast 482 555 35,000  Level FlightAware UK
04:55 49.5330 -8.2220 112° Southeast 560 644 35,000  Level FlightAware
04:55 49.5173 -8.1647 112° Southeast 482 555 35,000  Level FlightAware UK
04:55 49.4993 -8.0986 113° Southeast 484 557 35,000  Level FlightAware UK
04:55 49.4890 -8.0600 113° Southeast 561 646 35,000  Level FlightAware
04:56 49.4690 -7.9878 113° Southeast 486 559 35,000  Level FlightAware UK
04:56 49.4508 -7.9217 113° Southeast 484 557 35,000  Level FlightAware UK
04:56 49.4480 -7.9140 113° Southeast 560 644 35,000  Level FlightAware
04:56 49.4326 -7.8557 113° Southeast 484 557 35,000  Level FlightAware UK
04:57 49.4144 -7.7898 113° Southeast 484 557 35,000  Level FlightAware UK
04:57 49.4020 -7.7450 113° Southeast 561 646 35,000  Level FlightAware
04:57 49.3843 -7.6798 113° Southeast 486 559 35,000  Level FlightAware UK
04:57 49.3660 -7.6139 113° Southeast 488 562 35,000  Level FlightAware UK
04:57 49.3620 -7.5990 113° Southeast 559 643 35,000  Level FlightAware
04:58 49.3415 -7.5264 113° Southeast 488 562 35,000  Level FlightAware UK
04:58 49.3231 -7.4608 113° Southeast 490 564 35,000  Level FlightAware UK
04:58 49.3170 -7.4390 113° Southeast 556 640 35,000  Level FlightAware
04:58 49.2985 -7.3737 113° Southeast 490 564 35,000  Level FlightAware UK
04:59 49.2801 -7.3087 113° Southeast 490 564 35,000  Level FlightAware UK
04:59 49.2780 -7.3020 113° Southeast 555 639 35,000  Level FlightAware
04:59 49.2559 -7.2220 113° Southeast 488 562 35,000  Level FlightAware UK
04:59 49.2376 -7.1574 113° Southeast 486 559 35,000  Level FlightAware UK
05:00 49.2340 -7.1440 113° Southeast 552 635 35,000  Level FlightAware
05:00 49.2133 -7.0716 113° Southeast 486 559 35,000  Level FlightAware UK
05:00 49.1951 -7.0074 113° Southeast 486 559 35,000  Level FlightAware UK
05:00 49.1950 -7.0000 113° Southeast 552 635 35,000  Level FlightAware
05:00 49.1862 -6.9397 113° Southeast 486 559 35,000  Level FlightAware UK
05:01 49.1779 -6.8705 100° East 484 557 35,000  Level FlightAware UK
05:01 49.1720 -6.8250 100° East 547 629 35,000  Level FlightAware
05:01 49.1644 -6.7566 100° East 482 555 35,000  Level FlightAware UK
05:02 49.1560 -6.6882 101° East 482 555 35,000  Level FlightAware UK
05:02 49.1540 -6.6730 101° East 547 629 35,000  Level FlightAware
05:02 49.1444 -6.5972 101° East 482 555 35,000  Level FlightAware UK
05:02 49.1356 -6.5289 101° East 484 557 35,000  Level FlightAware UK
05:02 49.1350 -6.5210 101° East 547 629 35,000  Level FlightAware
05:03 49.1268 -6.4606 101° East 486 559 35,000  Level FlightAware UK
05:03 49.1183 -6.3925 101° East 486 559 35,000  Level FlightAware UK
05:03 49.1140 -6.3580 101° East 546 628 35,000  Level FlightAware
05:03 49.1040 -6.2789 101° East 486 559 35,000  Level FlightAware UK
05:04 49.0955 -6.2108 101° East 486 559 35,000  Level FlightAware UK
05:04 49.0930 -6.1930 101° East 545 627 35,000  Level FlightAware
05:04 49.0837 -6.1203 101° East 484 557 35,000  Level FlightAware UK
05:04 49.0747 -6.0527 102° East 484 557 35,000  Level FlightAware UK
05:04 49.0730 -6.0380 102° East 544 626 35,000  Level FlightAware
05:05 49.0536 -5.8952 102° East 484 557 35,000  Level FlightAware UK
05:05 49.0520 -5.8880 102° East 543 625 35,000  Level FlightAware
05:05 49.0444 -5.8279 102° East 482 555 35,000  Level FlightAware UK
05:06 49.0350 -5.7600 102° East 482 555 35,000  Level FlightAware UK
05:06 49.0300 -5.7240 102° East 542 624 35,000  Level FlightAware
05:06 49.0162 -5.6260 102° East 484 557 35,000  Level FlightAware UK
05:07 49.0090 -5.5750 102° East 541 623 35,000  Level FlightAware
05:07 49.0001 -5.5145 102° East 484 557 35,000  Level FlightAware UK
05:07 48.9904 -5.4477 102° East 482 555 35,000  Level FlightAware UK
05:07 48.9850 -5.4120 102° East 540 621 35,000  Level FlightAware
05:08 48.9641 -5.2698 102° East 486 559 35,000  Level FlightAware UK
05:08 48.9640 -5.2710 102° East 540 621 35,000  Level FlightAware
05:08 48.9514 -5.2044 102° East 486 559 35,000  Level FlightAware UK
05:09 48.9290 -5.1240 102° East 543 625 35,000  Level FlightAware
05:09 48.9057 -5.0600 102° East 486 559 35,000  Level FlightAware UK
05:09 48.8797 -5.0036 125° Southeast 484 557 35,000  Level FlightAware UK
05:09 48.8660 -4.9770 125° Southeast 544 626 35,000  Level FlightAware
05:10 48.8010 -4.8450 127° Southeast 542 624 35,000  Level FlightAware
05:11 48.7443 -4.7288 127° Southeast 488 562 35,000  Level FlightAware UK
05:11 48.7370 -4.7150 127° Southeast 540 621 35,000  Level FlightAware
05:11 48.7080 -4.6566 127° Southeast 486 559 35,000  Level FlightAware UK
05:11 48.6808 -4.6024 127° Southeast 486 559 35,000  Level FlightAware UK
05:11 48.6700 -4.5830 127° Southeast 539 620 35,000  Level FlightAware
05:12 48.6447 -4.5305 127° Southeast 486 559 35,000  Level FlightAware UK
05:12 48.6177 -4.4767 127° Southeast 484 557 35,000  Level FlightAware UK
05:12 48.6140 -4.4700 127° Southeast 537 618 35,000  Level FlightAware
05:12 48.5907 -4.4230 127° Southeast 484 557 35,000  Level FlightAware UK
05:13 48.5638 -4.3692 127° Southeast 486 559 35,000  Level FlightAware UK
05:13 48.5480 -4.3390 127° Southeast 534 615 35,000  Level FlightAware
05:13 48.5189 -4.2803 127° Southeast 490 564 35,000  Level FlightAware UK
05:14 48.4880 -4.2210 127° Southeast 530 610 35,000  Level FlightAware
05:14 48.4651 -4.1742 127° Southeast 492 566 35,000  Level FlightAware UK
05:14 48.4384 -4.1217 127° Southeast 496 571 35,000  Level FlightAware UK
05:14 48.4240 -4.0950 127° Southeast 527 606 35,000  Level FlightAware
05:15 48.3852 -4.0175 127° Southeast 492 566 35,000  Level FlightAware UK
05:15 48.3650 -3.9790 127° Southeast 526 605 35,000  Level FlightAware
05:15 48.3326 -3.9132 127° Southeast 492 566 35,000  Level FlightAware UK
05:16 48.3070 -3.8610 127° Southeast 524 603 35,000  Level FlightAware
05:16 48.2410 -3.7240 126° Southeast 522 601 35,000  Level FlightAware
05:17 48.1840 -3.6080 126° Southeast 519 597 35,000  Level FlightAware
05:18 48.1220 -3.4840 127° Southeast 516 594 35,000  Level FlightAware
05:18 48.0620 -3.3690 128° Southeast 515 593 35,000  Level FlightAware
05:19 47.9930 -3.2510 131° Southeast 514 592 35,000  Level FlightAware
05:20 47.9310 -3.1430 131° Southeast 512 589 35,000  Level FlightAware
05:21 47.8650 -3.0280 131° Southeast 511 588 35,000  Level FlightAware
05:21 47.8040 -2.9210 130° Southeast 511 588 35,000  Level FlightAware
05:22 47.7360 -2.8050 131° Southeast 511 588 35,000  Level FlightAware
05:23 47.6730 -2.6990 131° Southeast 510 587 35,000  Level FlightAware
05:23 47.6070 -2.5860 131° Southeast 509 586 35,000  Level FlightAware
05:24 47.5390 -2.4710 131° Southeast 508 585 35,000  Level FlightAware
05:25 47.4780 -2.3670 131° Southeast 507 583 35,000  Level FlightAware
05:25 47.4100 -2.2530 131° Southeast 507 583 35,000  Level FlightAware
05:26 47.3500 -2.1540 132° Southeast 507 583 35,000  Level FlightAware
05:27 47.2780 -2.0350 132° Southeast 506 582 35,000  Level FlightAware
05:28 47.2170 -1.9350 132° Southeast 505 581 35,000  Level FlightAware
05:28 47.1470 -1.8200 132° Southeast 506 582 35,000  Level FlightAware
05:29 47.0850 -1.7170 131° Southeast 508 585 35,000  Level FlightAware
05:30 47.0220 -1.6150 132° Southeast 509 586 35,000  Level FlightAware
05:30 46.9480 -1.4940 132° Southeast 511 588 35,000  Level FlightAware
05:31 46.8860 -1.3910 131° Southeast 513 590 35,000  Level FlightAware
05:32 46.8170 -1.2800 132° Southeast 514 592 35,000  Level FlightAware
05:32 46.7520 -1.1770 133° Southeast 514 592 35,000  Level FlightAware
05:33 46.6870 -1.0720 132° Southeast 514 592 35,000  Level FlightAware
05:34 46.6150 -0.9570 132° Southeast 513 590 35,000  Level FlightAware
05:35 46.5340 -0.8270 132° Southeast 513 590 35,000  Level FlightAware
05:35 46.4810 -0.7420 132° Southeast 513 590 35,000  Level FlightAware
05:36 46.4140 -0.6180 128° Southeast 507 583 35,000  Level FlightAware
05:37 46.3690 -0.4830 116° Southeast 497 572 35,000  Level FlightAware
05:37 46.3490 -0.3950 108° East 492 566 35,000  Level FlightAware
05:38 46.3180 -0.2630 109° East 495 570 35,000  Level FlightAware
05:39 46.2880 -0.1370 109° East 494 568 35,000  Level FlightAware
05:39 46.2540 -0.0140 112° Southeast 499 574 35,000  Level FlightAware
05:40 46.2190 0.1220 110° East 499 574 35,000  Level FlightAware
05:41 46.1810 0.2770 109° East 499 574 35,000  Level FlightAware
05:42 46.1510 0.3990 110° East 497 572 35,000  Level FlightAware
05:43 46.0960 0.6180 110° East 496 571 35,000  Level FlightAware
05:43 46.0710 0.7250 109° East 496 571 35,000  Level FlightAware
05:44 46.0420 0.8560 108° East 496 571 35,000  Level FlightAware
05:45 46.0200 0.9520 108° East 496 571 35,000  Level FlightAware
05:46 45.9910 1.0810 108° East 496 571 35,000  Level FlightAware
05:46 45.9690 1.1770 108° East 496 571 35,000  Level FlightAware
05:47 45.8960 1.4040 115° Southeast 494 568 35,000  Level FlightAware
05:48 45.8720 1.4980 110° East 494 568 35,000  Level FlightAware
05:48 45.8260 1.6710 111° Southeast 489 563 35,000  Level FlightAware
05:49 45.7950 1.7900 110° East 489 563 35,000  Level FlightAware
05:50 45.7600 1.9230 111° Southeast 490 564 35,000  Level FlightAware
05:50 45.7260 2.0510 111° Southeast 491 565 35,000  Level FlightAware
05:51 45.6920 2.1780 111° Southeast 490 564 35,000  Level FlightAware
05:52 45.6580 2.3050 111° Southeast 491 565 35,000  Level FlightAware
05:53 45.6230 2.4320 111° Southeast 491 565 35,000  Level FlightAware
05:53 45.5910 2.5530 111° Southeast 491 565 35,000  Level FlightAware
05:54 45.5530 2.6920 111° Southeast 492 566 35,000  Level FlightAware
05:55 45.5190 2.8160 111° Southeast 492 566 35,000  Level FlightAware
05:56 45.4850 2.9420 111° Southeast 492 566 35,000  Level FlightAware
05:56 45.4540 3.0610 110° East 492 566 35,000  Level FlightAware
05:57 45.4290 3.1530 111° Southeast 492 566 35,000  Level FlightAware
05:58 45.3580 3.3930 113° Southeast 35,000  Level FlightAware
05:59 45.3190 3.5340 111° Southeast 490 564 35,000  Level FlightAware
05:59 45.2840 3.6540 112° Southeast 493 567 35,000  Level FlightAware
06:00 45.2490 3.7910 110° East 498 573 35,000  Level FlightAware
06:01 45.2170 3.9440 106° East 502 578 35,000  Level FlightAware
06:02 45.1830 4.0800 109° East 496 571 35,000  Level FlightAware
06:02 45.1500 4.1800 115° Southeast 496 571 35,000  Level FlightAware
06:03 45.0840 4.3010 128° Southeast 491 565 35,000  Level FlightAware
06:04 45.0380 4.4130 120° Southeast 489 563 35,000  Level FlightAware
06:04 44.9810 4.5370 123° Southeast 487 560 35,000  Level FlightAware
06:05 44.9330 4.6450 122° Southeast 486 559 35,000  Level FlightAware
06:06 44.8830 4.7560 122° Southeast 487 560 35,000  Level FlightAware
06:07 44.8260 4.8840 122° Southeast 485 558 35,000  Level FlightAware
06:07 44.7830 4.9800 122° Southeast 484 557 35,000  Level FlightAware
06:08 44.7300 5.0940 123° Southeast 483 556 35,000  Level FlightAware
06:09 44.6760 5.2150 122° Southeast 483 556 35,000  Level FlightAware
06:09 44.6260 5.3240 123° Southeast 484 557 35,000  Level FlightAware
06:10 44.5760 5.4320 123° Southeast 484 557 35,000  Level FlightAware
06:10 44.5470 5.4950 123° Southeast 480 552 35,000  Level FlightAware
06:11 44.4990 5.5970 123° Southeast 480 552 35,000  Level FlightAware
06:12 44.4490 5.7050 123° Southeast 480 552 35,000  Level FlightAware
06:12 44.3940 5.8230 123° Southeast 480 552 35,000  Level FlightAware
06:13 44.3450 5.9280 123° Southeast 481 554 35,000  Level FlightAware
06:14 44.2730 6.0820 123° Southeast 482 555 35,000  Level FlightAware
06:15 44.2240 6.1850 124° Southeast 483 556 35,000  Level FlightAware
06:16 44.1660 6.3080 123° Southeast 490 564 35,000  Level FlightAware
06:17 44.0780 6.4900 124° Southeast 493 567 35,000  Level FlightAware
06:17 44.0310 6.5900 123° Southeast 494 568 35,000  Level FlightAware
06:18 43.9770 6.7010 124° Southeast 495 570 35,000  Level FlightAware
06:19 43.9260 6.8060 124° Southeast 498 573 35,000  Level FlightAware
06:19 43.8650 6.9310 124° Southeast 502 578 35,000  Level FlightAware
06:20 43.8130 7.0380 124° Southeast 505 581 35,000  Level FlightAware
06:21 43.7540 7.1590 124° Southeast 508 585 35,000  Level FlightAware
06:22 43.7040 7.2610 124° Southeast 509 586 35,000  Level FlightAware
06:22 43.6480 7.3740 124° Southeast 510 587 35,000  Level FlightAware
06:23 43.5880 7.4950 124° Southeast 511 588 35,000  Level FlightAware
06:24 43.5380 7.5950 125° Southeast 514 592 35,000  Level FlightAware
06:24 43.4760 7.7220 124° Southeast 515 593 35,000  Level FlightAware
06:25 43.4240 7.8240 125° Southeast 517 595 35,000  Level FlightAware
06:26 43.3630 7.9460 124° Southeast 518 596 35,000  Level FlightAware
06:26 43.3020 8.0660 125° Southeast 522 601 35,000  Level FlightAware
06:27 43.2460 8.1770 125° Southeast 523 602 35,000  Level FlightAware
06:28 43.1880 8.2920 125° Southeast 525 604 35,000  Level FlightAware
06:29 43.1240 8.4180 125° Southeast 527 606 35,000  Level FlightAware
06:29 43.0700 8.5220 125° Southeast 530 610 35,000  Level FlightAware
06:30 43.0080 8.6430 125° Southeast 532 612 35,000  Level FlightAware
06:31 42.9530 8.7590 123° Southeast 544 626 35,000  Level FlightAware
06:31 42.9090 8.8840 116° Southeast 549 632 35,000  Level FlightAware
06:32 42.8640 9.0120 116° Southeast 550 633 35,000  Level FlightAware
06:33 42.8180 9.1390 116° Southeast 551 634 35,000  Level FlightAware
06:33 42.7660 9.2850 116° Southeast 550 633 35,000  Level FlightAware
06:34 42.7210 9.4100 116° Southeast 551 634 35,000  Level FlightAware
06:35 42.6680 9.5520 117° Southeast 553 636 35,000  Level FlightAware
06:36 42.6240 9.6700 117° Southeast 552 635 35,000  Level FlightAware
06:36 42.5740 9.8060 116° Southeast 552 635 35,000  Level FlightAware
06:37 42.5270 9.9300 117° Southeast 552 635 35,000  Level FlightAware
06:38 42.4710 10.0610 120° Southeast 545 627 35,000  Level FlightAware
06:38 42.4150 10.1710 125° Southeast 546 628 35,000  Level FlightAware
06:39 42.3570 10.2860 124° Southeast 547 629 35,000  Level FlightAware
06:40 42.2930 10.4140 124° Southeast 543 625 35,000  Level FlightAware
06:40 42.2350 10.5260 125° Southeast 542 624 35,000  Level FlightAware
06:41 42.1750 10.6390 126° Southeast 542 624 35,000  Level FlightAware
06:42 42.1090 10.7650 125° Southeast 544 626 35,000  Level FlightAware
06:43 42.0510 10.8740 126° Southeast 545 627 35,000  Level FlightAware
06:43 41.9920 10.9850 126° Southeast 545 627 35,000  Level FlightAware
06:44 41.9250 11.1130 125° Southeast 550 633 35,000  Level FlightAware
06:45 41.8660 11.2240 125° Southeast 550 633 35,000  Level FlightAware
06:45 41.7990 11.3490 126° Southeast 550 633 35,000  Level FlightAware
06:46 41.7390 11.4590 126° Southeast 550 633 35,000  Level FlightAware
06:47 41.6800 11.5700 125° Southeast 551 634 35,000  Level FlightAware
06:47 41.6110 11.6970 126° Southeast 552 635 35,000  Level FlightAware
06:48 41.5510 11.8070 126° Southeast 552 635 35,000  Level FlightAware
06:49 41.4920 11.9140 126° Southeast 554 638 35,000  Level FlightAware
06:50 41.4240 12.0380 126° Southeast 552 635 35,000  Level FlightAware
06:50 41.3620 12.1510 126° Southeast 550 633 35,000  Level FlightAware
06:51 41.2920 12.2790 126° Southeast 553 636 35,000  Level FlightAware
06:52 41.2310 12.3880 127° Southeast 555 639 35,000  Level FlightAware
06:52 41.1760 12.4960 124° Southeast 559 643 35,000  Level FlightAware
06:53 41.1230 12.6160 120° Southeast 559 643 35,000  Level FlightAware
06:54 41.0650 12.7490 120° Southeast 559 643 35,000  Level FlightAware
06:54 41.0120 12.8670 121° Southeast 558 642 35,000  Level FlightAware
06:55 40.9610 12.9810 121° Southeast 557 641 35,000  Level FlightAware
06:56 40.9010 13.1160 120° Southeast 557 641 35,000  Level FlightAware
06:57 40.8500 13.2290 121° Southeast 555 639 35,000  Level FlightAware
06:57 40.7880 13.3650 121° Southeast 554 638 35,000  Level FlightAware
06:58 40.7370 13.4770 121° Southeast 552 635 35,000 240 Level FlightAware
06:59 40.6730 13.6160 121° Southeast 556 640 35,400 1,140 Climbing FlightAware
06:59 40.6230 13.7250 121° Southeast 547 629 36,600 1,140 Climbing FlightAware
07:00 40.5660 13.8490 121° Southeast 537 618 37,000 240 Climbing FlightAware
07:01 40.5130 13.9660 121° Southeast 535 616 37,000  Level FlightAware
07:01 40.4590 14.0820 121° Southeast 535 616 37,000  Level FlightAware
07:02 40.4030 14.2020 121° Southeast 535 616 37,000  Level FlightAware
07:03 40.3510 14.3120 122° Southeast 535 616 37,000  Level FlightAware
07:04 40.2960 14.4310 121° Southeast 536 617 37,000  Level FlightAware
07:04 40.2390 14.5530 121° Southeast 535 616 37,000  Level FlightAware
07:05 40.1900 14.6550 122° Southeast 536 617 37,000  Level FlightAware
07:06 40.1290 14.7840 122° Southeast 536 617 37,000  Level FlightAware
07:06 40.0770 14.8920 122° Southeast 535 616 37,000  Level FlightAware
07:07 40.0200 15.0120 122° Southeast 535 616 37,000  Level FlightAware
07:08 39.9660 15.1250 122° Southeast 537 618 37,000  Level FlightAware
07:08 39.9140 15.2340 122° Southeast 538 619 37,000  Level FlightAware
07:09 39.8530 15.3580 123° Southeast 538 619 37,000  Level FlightAware
07:10 39.8000 15.4670 122° Southeast 538 619 37,000  Level FlightAware
07:11 39.7420 15.5880 122° Southeast 540 621 37,000 180 Level FlightAware
07:11 39.6920 15.6890 123° Southeast 542 624 37,300 480 Climbing FlightAware
07:12 39.6300 15.8160 122° Southeast 549 632 37,700 720 Climbing FlightAware
07:13 39.5750 15.9300 122° Southeast 548 631 38,400 780 Climbing FlightAware
07:13 39.5150 16.0490 123° Southeast 551 634 38,800 420 Climbing FlightAware
07:14 39.4610 16.1610 122° Southeast 555 639 39,000 120 Climbing FlightAware
07:15 39.4090 16.2890 118° Southeast 566 651 39,000  Level FlightAware
07:15 39.3690 16.4170 112° Southeast 566 651 39,000  Level FlightAware
07:16 39.3250 16.5580 112° Southeast 564 649 39,000  Level FlightAware
07:17 39.2830 16.6850 113° Southeast 564 649 39,000  Level FlightAware
07:18 39.2370 16.8240 113° Southeast 564 649 39,000  Level FlightAware
07:18 39.1990 16.9420 113° Southeast 562 647 39,000  Level FlightAware
07:19 39.1640 17.0530 112° Southeast 564 649 39,000  Level FlightAware
07:20 39.1210 17.1860 113° Southeast 560 644 39,000  Level FlightAware
07:21 39.0720 17.3380 113° Southeast 565 650 39,000  Level FlightAware
07:21 39.0300 17.4650 113° Southeast 566 651 39,000  Level FlightAware
07:22 38.9930 17.5770 113° Southeast 567 652 39,000  Level FlightAware
07:23 38.9500 17.7100 113° Southeast 567 652 39,000  Level FlightAware
07:23 38.9040 17.8500 113° Southeast 568 654 39,000  Level FlightAware
07:24 38.8630 17.9740 113° Southeast 567 652 39,000  Level FlightAware
07:25 38.8200 18.1040 113° Southeast 567 652 39,000  Level FlightAware
07:26 38.7710 18.2520 113° Southeast 566 651 39,000  Level FlightAware
07:26 38.7330 18.3650 113° Southeast 565 650 39,000  Level FlightAware
07:27 38.6820 18.5190 113° Southeast 562 647 39,000  Level FlightAware
07:28 38.6450 18.6250 114° Southeast 561 646 39,000  Level FlightAware
07:28 38.6010 18.7590 113° Southeast 560 644 39,000  Level FlightAware
07:29 38.5520 18.9010 114° Southeast 560 644 39,000  Level FlightAware
07:30 38.5050 19.0480 112° Southeast 560 644 39,000  Level FlightAware
07:30 38.4690 19.1720 110° East 560 644 39,000  Level FlightAware
07:31 38.4290 19.3120 110° East 560 644 39,000  Level FlightAware
07:32 38.3920 19.4350 111° Southeast 560 644 39,000  Level FlightAware
07:32 38.3520 19.5740 110° East 558 642 39,000  Level FlightAware
07:33 38.3150 19.6970 111° Southeast 558 642 39,000  Level FlightAware
07:34 38.2740 19.8350 111° Southeast 558 642 39,000  Level FlightAware
07:35 38.2370 19.9570 111° Southeast 554 638 39,000  Level FlightAware
07:35 38.2000 20.0800 111° Southeast 555 639 39,000  Level FlightAware
07:36 38.1580 20.2200 111° Southeast 555 639 39,000  Level FlightAware
07:37 38.1210 20.3390 112° Southeast 555 639 39,000  Level FlightAware
07:37 38.0790 20.4770 111° Southeast 556 640 39,000  Level FlightAware
07:38 38.0410 20.6020 111° Southeast 557 641 39,000  Level FlightAware
07:39 38.0040 20.7210 112° Southeast 558 642 39,000  Level FlightAware
07:39 37.9660 20.8440 111° Southeast 559 643 39,000  Level FlightAware
07:40 37.9230 20.9820 112° Southeast 560 644 39,000  Level FlightAware
07:41 37.8790 21.1200 112° Southeast 564 649 39,000  Level FlightAware
07:42 37.8490 21.2180 111° Southeast 564 649 39,000  Level FlightAware
07:42 37.7980 21.3800 112° Southeast 565 650 39,000  Level FlightAware
07:43 37.7610 21.4970 112° Southeast 566 651 39,000  Level FlightAware
07:44 37.7170 21.6340 112° Southeast 566 651 39,000  Level FlightAware
07:44 37.6750 21.7630 112° Southeast 568 654 39,000  Level FlightAware
07:45 37.6340 21.8920 112° Southeast 568 654 39,000  Level FlightAware
07:46 37.5940 22.0150 112° Southeast 568 654 39,000  Level FlightAware
07:47 37.5490 22.1530 112° Southeast 568 654 39,000  Level FlightAware
07:47 37.5090 22.2780 112° Southeast 568 654 39,000  Level FlightAware
07:48 37.4640 22.4130 113° Southeast 568 654 39,000  Level FlightAware
07:49 37.4250 22.5320 112° Southeast 568 654 39,000  Level FlightAware
07:49 37.3800 22.6690 112° Southeast 567 652 39,000  Level FlightAware
07:50 37.3390 22.7900 113° Southeast 567 652 39,000  Level FlightAware
07:51 37.2950 22.9240 112° Southeast 567 652 39,000  Level FlightAware
07:51 37.2530 23.0510 113° Southeast 567 652 39,000  Level FlightAware
07:52 37.2140 23.1660 113° Southeast 566 651 39,000  Level FlightAware
07:53 37.1670 23.3050 113° Southeast 565 650 39,000  Level FlightAware
07:53 37.1270 23.4230 113° Southeast 566 651 39,000  Level FlightAware
07:54 37.0820 23.5550 113° Southeast 565 650 39,000  Level FlightAware
07:55 37.0380 23.6850 113° Southeast 567 652 39,000  Level FlightAware
07:56 36.9930 23.8140 114° Southeast 568 654 39,000  Level FlightAware
07:56 36.9530 23.9320 113° Southeast 567 652 39,000  Level FlightAware
07:57 36.9040 24.0700 114° Southeast 567 652 39,000  Level FlightAware
07:58 36.8640 24.1870 113° Southeast 570 656 39,000  Level FlightAware
07:58 36.8170 24.3230 113° Southeast 570 656 39,000  Level FlightAware
07:59 36.7740 24.4440 114° Southeast 572 658 39,000  Level FlightAware
08:00 36.7310 24.5650 114° Southeast 574 661 39,000  Level FlightAware
08:01 36.6840 24.6940 114° Southeast 574 661 39,000  Level FlightAware
08:01 36.6380 24.8210 114° Southeast 574 661 39,000  Level FlightAware
08:02 36.5900 24.9530 114° Southeast 574 661 39,000  Level FlightAware
08:03 36.5460 25.0700 115° Southeast 574 661 39,000  Level FlightAware
08:03 36.5000 25.1990 114° Southeast 575 662 39,000  Level FlightAware
08:04 36.4510 25.3280 115° Southeast 575 662 39,000  Level FlightAware
08:05 36.4050 25.4540 114° Southeast 575 662 39,000  Level FlightAware
08:05 36.3590 25.5770 115° Southeast 574 661 39,000  Level FlightAware
08:06 36.3130 25.7020 115° Southeast 574 661 39,000  Level FlightAware
08:07 36.2680 25.8180 116° Southeast 573 659 39,000  Level FlightAware
08:08 36.2170 25.9580 114° Southeast 573 659 39,000  Level FlightAware
08:09 36.1130 26.2300 115° Southeast 572 658 39,000  Level FlightAware
08:10 36.0540 26.3820 116° Southeast 571 657 39,000  Level FlightAware
08:11 35.9830 26.5710 115° Southeast 571 657 39,000  Level FlightAware
08:12 35.9490 26.6610 115° Southeast 571 657 39,000  Level FlightAware
08:13 35.9030 26.7820 115° Southeast 571 657 39,000  Level FlightAware
08:13 35.8220 26.9820 116° Southeast 574 661 39,000  Level FlightAware
08:14 35.7620 27.1360 116° Southeast 576 663 39,000  Level FlightAware
08:15 35.6980 27.3010 115° Southeast 574 661 39,000  Level FlightAware
08:16 35.6400 27.4450 116° Southeast 575 662 39,000  Level FlightAware
08:17 35.5940 27.5600 116° Southeast 574 661 39,000  Level FlightAware
08:17 35.5580 27.6510 116° Southeast 574 661 39,000  Level FlightAware
08:18 35.5130 27.7720 115° Southeast 574 661 39,000  Level FlightAware
08:19 35.4780 27.8620 116° Southeast 574 661 39,000  Level FlightAware
08:20 35.3800 28.0930 117° Southeast 580 667 39,000  Level FlightAware
08:20 35.3270 28.2220 117° Southeast 580 667 39,000  Level FlightAware
08:21 35.2800 28.3400 116° Southeast 581 669 39,000  Level FlightAware
08:22 35.2250 28.4720 117° Southeast 581 669 39,000  Level FlightAware
08:22 35.1790 28.5840 117° Southeast 581 669 39,000  Level FlightAware
08:23 35.1130 28.7440 117° Southeast 580 667 39,000  Level FlightAware
08:24 35.0630 28.8640 117° Southeast 580 667 39,000  Level FlightAware
08:25 35.0130 28.9840 117° Southeast 578 665 39,000  Level FlightAware
08:25 34.9660 29.0970 117° Southeast 578 665 39,000  Level FlightAware
08:26 34.9070 29.2390 117° Southeast 578 665 39,000  Level FlightAware
08:27 34.8560 29.3570 118° Southeast 573 659 39,000  Level FlightAware
08:28 34.8000 29.4900 117° Southeast 577 664 39,000  Level FlightAware
08:28 34.7520 29.6060 117° Southeast 573 659 39,000  Level FlightAware
08:29 34.7030 29.7200 118° Southeast 572 658 39,000  Level FlightAware
08:30 34.6410 29.8670 117° Southeast 572 658 39,000  Level FlightAware
08:31 34.6010 29.9650 116° Southeast 572 658 39,000  Level FlightAware
08:31 34.5280 30.1180 120° Southeast 571 657 39,000  Level FlightAware
08:32 34.4680 30.2390 121° Southeast 570 656 39,000  Level FlightAware
08:33 34.4190 30.3400 120° Southeast 568 654 39,000  Level FlightAware
08:33 34.3570 30.4660 121° Southeast 569 655 39,000  Level FlightAware
08:34 34.3030 30.5790 120° Southeast 568 654 39,000  Level FlightAware
08:35 34.2440 30.6990 121° Southeast 569 655 39,000  Level FlightAware
08:36 34.1930 30.8030 121° Southeast 570 656 39,000  Level FlightAware
08:36 34.1350 30.9240 120° Southeast 570 656 39,000  Level FlightAware
08:37 34.0740 31.0470 121° Southeast 571 657 39,000  Level FlightAware
08:38 34.0190 31.1590 121° Southeast 570 656 39,000  Level FlightAware
08:38 33.9590 31.2790 121° Southeast 569 655 39,000  Level FlightAware
08:39 33.9080 31.3830 121° Southeast 569 655 39,000  Level FlightAware
08:40 33.8500 31.4970 121° Southeast 568 654 39,000  Level FlightAware
08:40 33.7980 31.6020 121° Southeast 567 652 39,000  Level FlightAware
08:41 33.7350 31.7270 121° Southeast 568 654 39,000  Level FlightAware
08:42 33.6820 31.8320 121° Southeast 567 652 39,000  Level FlightAware
08:43 33.6200 31.9550 121° Southeast 567 652 39,000  Level FlightAware
08:43 33.5770 32.0410 121° Southeast 567 652 39,000  Level FlightAware
08:44 33.5100 32.1730 121° Southeast 562 647 39,000  Level FlightAware
08:45 33.4490 32.2930 121° Southeast 562 647 39,000 -540 Level FlightAware
08:45 33.3970 32.3950 121° Southeast 561 646 38,300 -1,500 Descending FlightAware
08:46 33.3400 32.5050 122° Southeast 567 652 37,000 -2,340 Descending FlightAware
08:47 33.2780 32.6230 122° Southeast 566 651 35,000 -2,520 Descending FlightAware
08:47 33.2190 32.7400 121° Southeast 560 644 33,500 -2,220 Descending FlightAware
08:48 33.1660 32.8440 121° Southeast 550 633 32,100 -2,040 Descending FlightAware
08:49 33.1100 32.9520 122° Southeast 551 634 30,600 -2,400 Descending FlightAware
08:50 33.0480 33.0710 122° Southeast 531 611 28,600 -2,580 Descending FlightAware
08:50 32.9750 33.2060 123° Southeast 512 589 26,400 -1,500 Descending FlightAware
08:51 32.9250 33.2920 125° Southeast 509 586 26,200 -2,100 Descending FlightAware
08:52 32.8630 33.3930 126° Southeast 470 541 23,500 -2,940 Descending FlightAware
08:53 32.8100 33.4820 125° Southeast 451 519 22,100 -1,920 Descending FlightAware
08:53 32.7640 33.5620 124° Southeast 436 502 20,900 -1,860 Descending FlightAware
08:54 32.7150 33.6470 124° Southeast 419 482 19,600 -1,800 Descending FlightAware
08:55 32.6710 33.7210 125° Southeast 401 461 18,400 -1,740 Descending FlightAware
08:55 32.6260 33.7990 124° Southeast 385 443 17,200 -1,620 Descending FlightAware
08:56 32.5850 33.8670 126° Southeast 373 429 16,200 -1,500 Descending FlightAware
08:57 32.5420 33.9400 125° Southeast 363 418 15,100 -1,560 Descending FlightAware
08:57 32.5040 34.0040 125° Southeast 353 406 14,100 -1,560 Descending FlightAware
08:58 32.4630 34.0720 126° Southeast 344 396 13,000 -1,500 Descending FlightAware
08:59 32.4250 34.1350 126° Southeast 351 404 12,000 -1,440 Descending FlightAware
09:00 32.3850 34.2030 125° Southeast 340 391 11,000 -1,380 Descending FlightAware
09:00 32.3490 34.2630 125° Southeast 331 381 10,100 -900 Descending FlightAware
09:01 32.3230 34.3060 126° Southeast 304 350 10,000 -180 Descending FlightAware
09:01 32.3160 34.3180 125° Southeast 295 339 10,000 -360 Level FlightAware
09:02 32.2850 34.3690 126° Southeast 289 333 9,700 -300 Descending FlightAware
09:02 32.2700 34.3950 124° Southeast 289 333 9,700  Level FlightAware
09:03 32.2460 34.4350 125° Southeast 289 333 9,700  Level FlightAware
09:03 32.2290 34.4650 124° Southeast 289 333 9,700  Level FlightAware
09:06 32.0365 34.8059 125° Southeast  Level FlightAware Approximate
09:07 32.0000 34.8667 125° Southeast  Level FlightAware Approximate
09:08 32.0095 34.8769 125° Southeast  Level Estimated
09:09 32.0095 34.8769 125° Southeast  Level Estimated
09:10 32.0095 34.8769 125° Southeast  Level Estimated
09:11 32.0095 34.8769 125° Southeast  Level Estimated
09:12 32.0095 34.8769 125° Southeast  Level Estimated
09:13 32.0095 34.8769 125° Southeast  Level Estimated